Time;durP1;ratioP1;P1;durP2;ratioP2;P2;SDS_P1;SDS_P2;PMS_P1;PMS_P2;Temp;Humidity;BMP_temperature;BMP_pressure;BME280_temperature;BME280_humidity;BME280_pressure;Samples;Min_cycle;Max_cycle;Signal;HPM_P1;HPM_P2
2022/06/13 00:01:24;;;;;;;6.25;4.20;;;21.30;99.90;;;;;;4990721;28;20038;-86
2022/06/13 00:03:51;;;;;;;4.80;4.18;;;21.20;99.90;;;;;;4992639;28;20018;-85
2022/06/13 00:06:17;;;;;;;4.22;3.90;;;21.00;99.90;;;;;;4972417;28;20035;-85
2022/06/13 00:08:44;;;;;;;4.25;3.67;;;21.10;99.90;;;;;;4990224;28;20105;-84
2022/06/13 00:11:13;;;;;;;4.90;3.70;;;21.10;99.90;;;;;;4989623;28;20037;-84
2022/06/13 00:13:41;;;;;;;6.00;3.85;;;21.20;99.90;;;;;;4990404;28;20530;-84
2022/06/13 00:16:08;;;;;;;6.20;4.07;;;21.10;99.90;;;;;;4991774;28;20019;-84
2022/06/13 00:18:33;;;;;;;4.90;4.40;;;21.10;99.90;;;;;;4991164;28;20494;-84
2022/06/13 00:20:59;;;;;;;7.75;4.47;;;21.10;99.90;;;;;;4990337;28;20027;-84
2022/06/13 00:23:24;;;;;;;4.45;3.95;;;21.10;99.90;;;;;;4990101;28;20038;-84
2022/06/13 00:25:50;;;;;;;5.45;4.30;;;20.90;99.90;;;;;;4989561;28;20478;-84
2022/06/13 00:28:16;;;;;;;5.97;3.78;;;20.90;99.90;;;;;;4990885;28;20109;-85
2022/06/13 00:30:49;;;;;;;5.28;4.10;;;20.90;99.90;;;;;;4992235;28;20029;-84
2022/06/13 00:33:21;;;;;;;4.40;4.00;;;20.90;99.90;;;;;;4990078;28;20042;-83
2022/06/13 00:35:46;;;;;;;5.90;4.43;;;21.00;99.90;;;;;;4990979;28;20030;-84
2022/06/13 00:38:12;;;;;;;4.75;4.28;;;21.10;99.90;;;;;;4988831;28;20105;-84
2022/06/13 00:40:38;;;;;;;4.78;3.90;;;21.10;99.90;;;;;;4971222;28;20054;-85
2022/06/13 00:43:05;;;;;;;4.57;4.18;;;21.00;99.90;;;;;;4992285;28;20028;-84
2022/06/13 00:45:36;;;;;;;7.60;4.43;;;21.00;99.90;;;;;;4990828;28;20031;-85
2022/06/13 00:48:03;;;;;;;6.30;4.05;;;21.00;99.90;;;;;;4990082;28;20046;-84
2022/06/13 00:50:32;;;;;;;4.57;4.18;;;20.90;99.90;;;;;;4989278;28;20026;-84
2022/06/13 00:53:08;;;;;;;6.80;4.28;;;20.90;99.90;;;;;;4972676;28;20395;-84
2022/06/13 00:55:43;;;;;;;5.57;4.22;;;21.00;99.90;;;;;;4982582;28;20031;-84
2022/06/13 00:58:10;;;;;;;6.47;4.03;;;21.00;99.90;;;;;;4991415;28;20022;-84
2022/06/13 01:00:36;;;;;;;5.20;4.50;;;21.00;99.90;;;;;;4994205;28;20383;-84
2022/06/13 01:03:04;;;;;;;4.63;4.10;;;20.90;99.90;;;;;;4976218;28;20558;-84
2022/06/13 01:05:31;;;;;;;5.05;4.20;;;20.90;99.90;;;;;;4993669;28;20022;-84
2022/06/13 01:08:00;;;;;;;5.20;4.05;;;20.90;99.90;;;;;;4993284;28;20129;-84
2022/06/13 01:13:12;;;;;;;6.53;4.20;;;20.80;99.90;;;;;;4992232;28;20474;-84
2022/06/13 01:15:55;;;;;;;5.85;4.57;;;20.80;99.90;;;;;;4994759;28;20034;-84
2022/06/13 01:18:24;;;;;;;4.63;4.10;;;20.80;99.90;;;;;;4991719;28;20023;-83
2022/06/13 01:21:14;;;;;;;6.07;4.03;;;20.70;99.90;;;;;;4992457;28;20032;-83
2022/06/13 01:23:58;;;;;;;4.40;4.00;;;20.70;99.90;;;;;;4990612;28;20026;-84
2022/06/13 01:26:32;;;;;;;4.82;4.28;;;20.70;99.90;;;;;;4983372;28;20030;-84
2022/06/13 01:29:16;;;;;;;5.88;4.00;;;20.70;99.90;;;;;;4993135;28;20156;-84
2022/06/13 01:32:20;;;;;;;4.57;4.18;;;20.60;99.90;;;;;;4978990;28;20406;-84
2022/06/13 01:35:04;;;;;;;4.90;4.40;;;20.50;99.90;;;;;;4921007;29;20075;-84
2022/06/13 01:37:34;;;;;;;4.80;4.30;;;20.60;99.90;;;;;;4934057;29;20522;-84
2022/06/13 01:40:27;;;;;;;6.18;4.35;;;20.60;1.00;;;;;;4929764;29;20115;-84
2022/06/13 01:43:30;;;;;;;6.05;4.45;;;20.40;1.00;;;;;;4915803;29;20044;-84
2022/06/13 01:46:06;;;;;;;5.72;4.40;;;20.50;1.00;;;;;;4911423;29;20042;-84
2022/06/13 01:48:36;;;;;;;4.72;4.22;;;20.30;1.00;;;;;;4915158;29;20127;-84
2022/06/13 01:51:34;;;;;;;4.68;4.28;;;20.30;1.00;;;;;;4914832;29;20048;-83
2022/06/13 01:54:05;;;;;;;6.88;4.22;;;20.30;1.00;;;;;;4899358;29;20135;-84
2022/06/13 01:56:44;;;;;;;4.63;4.03;;;20.40;1.00;;;;;;4915146;29;20042;-84
2022/06/13 01:59:36;;;;;;;5.03;4.60;;;20.40;1.00;;;;;;4914906;29;20050;-84
2022/06/13 02:02:15;;;;;;;6.93;4.45;;;20.40;1.00;;;;;;4857622;29;20042;-84
2022/06/13 02:04:47;;;;;;;5.10;4.07;;;20.20;1.00;;;;;;4844896;29;20053;-84
2022/06/13 02:07:25;;;;;;;6.03;4.20;;;20.30;1.00;;;;;;4858902;29;20034;-83
2022/06/13 02:10:02;;;;;;;6.22;4.03;;;20.30;1.00;;;;;;4864097;29;20120;-84
2022/06/13 02:12:32;;;;;;;5.13;4.20;;;20.30;1.00;;;;;;4876928;29;20059;-83
2022/06/13 02:15:09;;;;;;;5.07;4.38;;;20.40;1.00;;;;;;4877100;29;20040;-84
2022/06/13 02:17:46;;;;;;;4.90;4.13;;;20.30;1.00;;;;;;4876372;29;20057;-83
2022/06/13 02:20:20;;;;;;;5.50;4.50;;;20.20;1.00;;;;;;4885622;29;20135;-84
2022/06/13 02:22:56;;;;;;;7.35;4.30;;;20.30;1.00;;;;;;4895741;29;20032;-84
2022/06/13 02:25:31;;;;;;;7.72;4.82;;;20.30;1.00;;;;;;4895640;29;20112;-84
2022/06/13 02:28:26;;;;;;;6.35;4.30;;;20.30;1.00;;;;;;4896057;29;20119;-84
2022/06/13 02:30:58;;;;;;;5.18;4.10;;;20.20;1.00;;;;;;4887168;29;20124;-84
2022/06/13 02:33:37;;;;;;;8.35;3.88;;;20.20;1.00;;;;;;4894087;29;20047;-83
2022/06/13 02:36:09;;;;;;;5.90;4.15;;;20.30;1.00;;;;;;4875724;29;20490;-84
2022/06/13 02:38:45;;;;;;;7.40;4.40;;;20.00;1.00;;;;;;4926517;28;20031;-84
2022/06/13 02:41:17;;;;;;;4.75;4.28;;;19.90;1.00;;;;;;4990803;28;20031;-84
2022/06/13 02:43:48;;;;;;;6.50;4.32;;;19.90;1.00;;;;;;4992221;28;20032;-85
2022/06/13 02:46:29;;;;;;;7.95;4.43;;;19.80;1.00;;;;;;4992166;28;20044;-84
2022/06/13 02:49:01;;;;;;;5.03;4.45;;;19.90;1.00;;;;;;4992711;28;20363;-84
2022/06/13 02:51:45;;;;;;;4.72;4.22;;;19.90;1.00;;;;;;4991694;28;20475;-84
2022/06/13 02:54:17;;;;;;;6.55;4.13;;;19.80;1.00;;;;;;4991438;28;20451;-84
2022/06/13 02:57:25;;;;;;;4.43;4.03;;;19.80;1.00;;;;;;4991292;28;20101;-84
2022/06/13 03:00:28;;;;;;;11.18;4.90;;;19.80;1.00;;;;;;4989768;28;20034;-84
2022/06/13 03:03:20;;;;;;;5.43;4.50;;;19.60;1.00;;;;;;4991144;28;20026;-84
2022/06/13 03:05:55;;;;;;;4.95;4.45;;;19.70;1.00;;;;;;4991338;28;20057;-84
2022/06/13 03:08:52;;;;;;;7.97;4.22;;;19.80;1.00;;;;;;4991480;28;20431;-84
2022/06/13 03:11:39;;;;;;;5.68;4.50;;;19.80;1.00;;;;;;4990036;28;20042;-84
2022/06/13 03:14:17;;;;;;;6.55;4.50;;;19.80;1.00;;;;;;4989805;28;20513;-84
2022/06/13 03:17:02;;;;;;;5.38;3.92;;;19.90;99.90;;;;;;4961464;28;20403;-84
2022/06/13 03:19:44;;;;;;;6.20;4.30;;;19.90;99.90;;;;;;4990990;28;20027;-84
2022/06/13 03:22:22;;;;;;;7.78;4.38;;;19.90;99.90;;;;;;4989025;28;20498;-86
2022/06/13 03:24:51;;;;;;;5.20;4.50;;;19.70;99.90;;;;;;4991550;28;20114;-84
2022/06/13 03:27:37;;;;;;;5.43;4.38;;;19.70;99.90;;;;;;4990955;28;20503;-84
2022/06/13 03:30:08;;;;;;;6.10;4.25;;;19.80;99.90;;;;;;4991009;28;20032;-84
2022/06/13 03:32:40;;;;;;;6.65;4.30;;;19.80;99.90;;;;;;4989640;28;20088;-84
2022/06/13 03:35:11;;;;;;;4.90;3.85;;;19.80;99.90;;;;;;4990711;28;20054;-84
2022/06/13 03:37:42;;;;;;;4.95;4.43;;;19.80;99.90;;;;;;4991059;28;20018;-84
2022/06/13 03:40:11;;;;;;;8.40;4.40;;;19.90;99.90;;;;;;4992318;28;20526;-85
2022/06/13 03:43:03;;;;;;;6.72;4.20;;;20.00;99.90;;;;;;4991772;28;20364;-84
2022/06/13 03:45:38;;;;;;;7.10;4.43;;;20.00;99.90;;;;;;4991470;28;20038;-83
2022/06/13 03:48:22;;;;;;;5.45;4.32;;;20.00;99.90;;;;;;4989621;28;20037;-84
2022/06/13 03:50:53;;;;;;;7.05;4.32;;;19.80;99.90;;;;;;4989326;28;20450;-83
2022/06/13 03:53:33;;;;;;;4.68;4.15;;;19.80;99.90;;;;;;4989447;28;20553;-84
2022/06/13 03:56:37;;;;;;;6.75;4.68;;;19.80;99.90;;;;;;4990821;28;20061;-84
2022/06/13 03:59:33;;;;;;;6.38;5.13;;;19.80;99.90;;;;;;4919445;29;20035;-84
2022/06/13 04:02:03;;;;;;;7.75;4.50;;;19.70;99.90;;;;;;4921558;29;20452;-84
2022/06/13 04:04:35;;;;;;;6.50;4.28;;;19.70;99.90;;;;;;4931180;29;20043;-83
2022/06/13 04:07:02;;;;;;;5.38;4.65;;;19.70;99.90;;;;;;4932964;29;20082;-84
2022/06/13 04:09:37;;;;;;;7.97;4.57;;;19.90;99.90;;;;;;4929674;29;20035;-83
2022/06/13 04:12:17;;;;;;;8.52;4.68;;;19.90;99.90;;;;;;4929855;29;20047;-84
2022/06/13 04:15:04;;;;;;;6.18;4.45;;;20.10;99.90;;;;;;4930890;29;20051;-84
2022/06/13 04:18:08;;;;;;;6.35;4.60;;;20.20;99.90;;;;;;4928887;29;20059;-83
2022/06/13 04:21:00;;;;;;;7.20;4.63;;;20.30;99.90;;;;;;4930572;29;20095;-88
2022/06/13 04:24:02;;;;;;;8.30;4.75;;;20.30;99.90;;;;;;4928550;29;20040;-84
2022/06/13 04:26:40;;;;;;;8.88;4.63;;;20.30;99.90;;;;;;4928807;29;20102;-84
2022/06/13 04:29:09;;;;;;;6.38;4.45;;;20.40;99.90;;;;;;4913294;29;20431;-84
2022/06/13 04:31:36;;;;;;;8.20;4.80;;;20.40;99.90;;;;;;4930666;29;20036;-84
2022/06/13 04:34:12;;;;;;;8.23;5.03;;;20.40;99.90;;;;;;4987487;28;20042;-83
2022/06/13 04:36:40;;;;;;;7.60;4.30;;;20.40;99.90;;;;;;4995338;28;20030;-84
2022/06/13 04:39:08;;;;;;;9.63;4.50;;;20.50;99.90;;;;;;4993744;28;20034;-83
2022/06/13 04:41:38;;;;;;;9.43;4.90;;;20.50;99.90;;;;;;4993816;28;20054;-83
2022/06/13 04:44:05;;;;;;;7.32;4.68;;;20.50;99.90;;;;;;4993781;28;20525;-83
2022/06/13 04:46:34;;;;;;;7.90;4.90;;;20.60;99.90;;;;;;4994056;28;20035;-84
2022/06/13 04:49:07;;;;;;;10.68;5.47;;;20.60;99.90;;;;;;4991744;28;20042;-86
2022/06/13 04:51:40;;;;;;;5.22;4.47;;;20.70;99.90;;;;;;4993355;28;20482;-86
2022/06/13 04:54:09;;;;;;;8.57;4.57;;;20.80;99.90;;;;;;4992064;28;20046;-87
2022/06/13 04:56:34;;;;;;;9.00;4.95;;;20.70;99.90;;;;;;4993889;28;20082;-86
2022/06/13 04:59:01;;;;;;;7.07;5.20;;;20.60;99.90;;;;;;4993052;28;20029;-84
2022/06/13 05:01:36;;;;;;;7.10;5.15;;;20.80;99.90;;;;;;4993574;28;20062;-84
2022/06/13 05:04:05;;;;;;;5.47;4.97;;;20.80;99.90;;;;;;4990400;28;20068;-84
2022/06/13 05:06:53;;;;;;;7.20;4.80;;;20.80;99.90;;;;;;4994326;28;20038;-84
2022/06/13 05:09:31;;;;;;;6.20;4.72;;;20.80;99.90;;;;;;4991594;28;20089;-84
2022/06/13 05:12:21;;;;;;;7.60;4.88;;;20.80;99.90;;;;;;4994299;28;20084;-84
2022/06/13 05:14:59;;;;;;;10.15;5.13;;;20.90;99.90;;;;;;4992719;28;20491;-84
2022/06/13 05:17:56;;;;;;;10.07;5.00;;;21.00;99.90;;;;;;4983723;28;20503;-84
2022/06/13 05:20:57;;;;;;;7.70;4.70;;;21.00;99.90;;;;;;4991177;28;20022;-84
2022/06/13 05:23:50;;;;;;;8.57;4.50;;;20.80;99.90;;;;;;4915572;29;20044;-84
2022/06/13 05:26:17;;;;;;;6.38;4.57;;;21.10;99.90;;;;;;4915521;29;20091;-84
2022/06/13 05:28:42;;;;;;;7.38;5.05;;;21.30;99.90;;;;;;4915240;29;20028;-84
2022/06/13 05:31:19;;;;;;;7.63;4.75;;;21.40;99.90;;;;;;4915930;29;20046;-83
2022/06/13 05:33:46;;;;;;;9.57;4.97;;;21.30;99.90;;;;;;4914872;29;20047;-85
2022/06/13 05:36:15;;;;;;;7.63;4.72;;;21.40;99.90;;;;;;4915702;29;20085;-85
2022/06/13 05:38:47;;;;;;;6.30;4.53;;;21.40;99.90;;;;;;4910661;29;20028;-85
2022/06/13 05:41:13;;;;;;;8.52;4.88;;;21.70;99.90;;;;;;4905670;29;20456;-86
2022/06/13 05:43:39;;;;;;;5.72;4.18;;;22.00;99.90;;;;;;4909997;29;20036;-84
2022/06/13 05:46:06;;;;;;;6.03;4.18;;;22.00;99.90;;;;;;4909857;29;20068;-85
2022/06/13 05:48:33;;;;;;;7.72;4.88;;;21.90;99.90;;;;;;4910380;29;20123;-89
2022/06/13 05:50:59;;;;;;;6.55;4.88;;;21.90;99.90;;;;;;4914873;29;20051;-86
2022/06/13 05:53:26;;;;;;;8.73;4.65;;;21.50;99.90;;;;;;4908131;29;20040;-86
2022/06/13 05:55:56;;;;;;;5.82;4.30;;;21.40;99.90;;;;;;4914693;29;20032;-86
2022/06/13 05:58:23;;;;;;;6.40;4.57;;;21.40;99.90;;;;;;4915300;28;20061;-87
2022/06/13 06:00:52;;;;;;;8.02;5.22;;;21.40;99.90;;;;;;4993665;28;20034;-87
2022/06/13 06:03:19;;;;;;;4.95;4.43;;;21.60;99.90;;;;;;4991152;28;20502;-87
2022/06/13 06:05:45;;;;;;;9.68;4.68;;;21.90;99.90;;;;;;4974797;28;20038;-82
2022/06/13 06:08:21;;;;;;;10.10;4.60;;;21.80;99.90;;;;;;4991774;28;20566;-82
2022/06/13 06:10:51;;;;;;;5.50;4.20;;;21.70;99.90;;;;;;4991034;28;20026;-80
2022/06/13 06:13:17;;;;;;;8.98;4.75;;;21.80;99.90;;;;;;4992511;28;20030;-80
2022/06/13 06:15:44;;;;;;;5.55;4.60;;;22.00;99.90;;;;;;4993823;28;20114;-80
2022/06/13 06:18:11;;;;;;;7.22;4.63;;;21.90;99.90;;;;;;4990898;28;20042;-86
2022/06/13 06:20:36;;;;;;;4.55;4.13;;;21.90;99.90;;;;;;4990771;28;20030;-80
2022/06/13 06:23:03;;;;;;;7.43;4.80;;;21.90;99.90;;;;;;4989851;28;20031;-79
2022/06/13 06:25:29;;;;;;;8.07;4.70;;;22.20;99.90;;;;;;4991378;28;20026;-79
2022/06/13 06:27:54;;;;;;;7.88;4.00;;;22.10;99.90;;;;;;4993346;28;20084;-81
2022/06/13 06:30:20;;;;;;;10.02;4.10;;;22.10;99.90;;;;;;4989753;28;20031;-81
2022/06/13 06:32:49;;;;;;;6.57;4.07;;;22.20;99.90;;;;;;4990743;28;20050;-81
2022/06/13 06:35:15;;;;;;;6.20;4.13;;;22.40;99.90;;;;;;4991374;28;20126;-82
2022/06/13 06:37:46;;;;;;;6.78;3.88;;;22.30;99.90;;;;;;4991789;28;20041;-81
2022/06/13 06:40:15;;;;;;;8.20;4.28;;;22.20;99.90;;;;;;4992606;28;20030;-80
2022/06/13 06:42:41;;;;;;;4.47;4.03;;;22.50;99.90;;;;;;4993282;28;20542;-80
2022/06/13 06:45:07;;;;;;;6.05;3.75;;;22.80;99.90;;;;;;4991720;28;20030;-83
2022/06/13 06:47:33;;;;;;;4.25;3.72;;;22.90;99.90;;;;;;4990442;28;20030;-81
2022/06/13 06:49:59;;;;;;;9.25;4.20;;;22.80;99.90;;;;;;4989614;28;20034;-81
2022/06/13 06:52:24;;;;;;;6.68;3.72;;;22.60;99.90;;;;;;4991728;28;20523;-82
2022/06/13 07:00:19;;;;;;;5.88;3.38;;;22.80;99.90;;;;;;4991679;28;20049;-84
2022/06/13 07:02:45;;;;;;;6.70;3.55;;;23.00;99.90;;;;;;4989553;28;20027;-85
2022/06/13 07:05:12;;;;;;;7.32;3.30;;;23.50;99.90;;;;;;4990215;28;20505;-85
2022/06/13 07:07:38;;;;;;;6.20;3.70;;;23.60;99.90;;;;;;4990113;28;20030;-85
2022/06/13 07:10:04;;;;;;;7.13;3.50;;;23.60;99.90;;;;;;4991991;28;20033;-84
2022/06/13 07:12:30;;;;;;;10.07;3.63;;;23.40;99.90;;;;;;4989950;28;20506;-84
2022/06/13 07:14:56;;;;;;;6.72;4.35;;;23.30;99.90;;;;;;4991069;28;20026;-85
2022/06/13 07:17:22;;;;;;;4.57;3.13;;;23.50;99.90;;;;;;4991202;28;20407;-85
2022/06/13 07:19:48;;;;;;;4.38;3.47;;;23.50;99.90;;;;;;4991202;28;20037;-83
2022/06/13 07:22:17;;;;;;;5.95;3.00;;;23.40;99.90;;;;;;4990846;28;20376;-83
2022/06/13 07:24:44;;;;;;;8.85;3.75;;;23.80;99.90;;;;;;4992462;28;20041;-84
2022/06/13 07:27:10;;;;;;;9.45;3.85;;;23.70;99.90;;;;;;4991015;28;20093;-83
2022/06/13 07:29:36;;;;;;;9.07;3.45;;;23.60;99.90;;;;;;4991100;28;20057;-83
2022/06/13 07:32:25;;;;;;;7.65;3.42;;;23.60;99.90;;;;;;4991221;28;20030;-83
2022/06/13 07:34:52;;;;;;;8.77;4.13;;;23.70;99.90;;;;;;4977367;28;20056;-83
2022/06/13 07:40:09;;;;;;;6.72;3.78;;;23.40;99.90;;;;;;4989108;28;20044;-83
2022/06/13 07:42:43;;;;;;;5.32;3.30;;;23.50;99.90;;;;;;4990321;28;20038;-83
2022/06/13 07:45:13;;;;;;;11.45;3.70;;;23.70;99.90;;;;;;4989636;28;20038;-83
2022/06/13 07:47:39;;;;;;;7.13;3.30;;;24.00;99.90;;;;;;4989414;28;20105;-83
2022/06/13 07:50:06;;;;;;;5.38;3.22;;;23.80;99.90;;;;;;4990742;28;20026;-84
2022/06/13 07:52:32;;;;;;;5.75;2.92;;;23.90;99.90;;;;;;4988828;28;20029;-84
2022/06/13 07:54:57;;;;;;;7.55;3.40;;;24.10;99.90;;;;;;4992795;28;20034;-83
2022/06/13 07:57:23;;;;;;;7.35;3.30;;;23.80;99.90;;;;;;4990031;28;20081;-85
2022/06/13 07:59:49;;;;;;;5.57;3.00;;;23.80;99.90;;;;;;4990233;28;20094;-85
2022/06/13 08:02:17;;;;;;;5.47;3.30;;;24.00;99.90;;;;;;4990780;28;20050;-85
2022/06/13 08:04:44;;;;;;;8.27;3.28;;;24.20;99.90;;;;;;4990843;28;20121;-85
2022/06/13 08:07:11;;;;;;;6.30;3.00;;;24.20;99.90;;;;;;4991694;28;20030;-84
2022/06/13 08:09:37;;;;;;;7.75;3.22;;;24.30;99.90;;;;;;4994801;28;20041;-85
2022/06/13 08:12:04;;;;;;;4.35;3.00;;;24.60;99.90;;;;;;4994385;28;20097;-85
2022/06/13 08:14:30;;;;;;;6.35;2.90;;;24.70;99.90;;;;;;4993467;28;20520;-85
2022/06/13 08:16:56;;;;;;;6.85;3.72;;;25.00;99.90;;;;;;4994579;28;20117;-84
2022/06/13 08:19:21;;;;;;;3.85;2.90;;;24.90;99.90;;;;;;4994507;28;20468;-84
2022/06/13 08:21:47;;;;;;;4.95;2.97;;;24.60;99.90;;;;;;4996241;28;20398;-84
2022/06/13 08:24:13;;;;;;;5.15;3.47;;;24.30;99.90;;;;;;4993347;28;20501;-85
2022/06/13 08:26:38;;;;;;;6.40;3.42;;;24.30;99.90;;;;;;4992851;28;20541;-84
2022/06/13 08:29:04;;;;;;;6.88;3.33;;;24.60;99.90;;;;;;4991564;28;20039;-85
2022/06/13 08:31:31;;;;;;;5.45;3.42;;;24.90;99.90;;;;;;4994444;28;20074;-85
2022/06/13 08:33:57;;;;;;;6.28;3.35;;;24.90;99.90;;;;;;4996112;28;20053;-85
2022/06/13 08:36:22;;;;;;;6.78;2.95;;;24.70;99.90;;;;;;4993833;28;20454;-84
2022/06/13 08:38:48;;;;;;;6.65;3.33;;;24.70;99.90;;;;;;4994007;28;20105;-84
2022/06/13 08:41:20;;;;;;;7.38;3.30;;;24.90;99.90;;;;;;4994088;28;20118;-84
2022/06/13 08:44:07;;;;;;;5.45;3.70;;;25.10;99.90;;;;;;4992326;28;20041;-85
2022/06/13 08:46:58;;;;;;;6.68;3.63;;;25.30;99.90;;;;;;4978792;28;20447;-85
2022/06/13 08:49:42;;;;;;;6.00;3.50;;;25.50;99.90;;;;;;4992959;28;20161;-85
2022/06/13 08:52:37;;;;;;;7.03;3.90;;;25.80;99.90;;;;;;4991920;28;20033;-85
2022/06/13 08:55:12;;;;;;;6.60;3.85;;;25.90;99.90;;;;;;4990968;28;20046;-85
2022/06/13 08:57:53;;;;;;;4.82;3.55;;;25.60;99.90;;;;;;4993468;28;20085;-85
2022/06/13 09:00:23;;;;;;;5.68;3.65;;;25.40;99.90;;;;;;4993429;28;20034;-85
2022/06/13 09:03:00;;;;;;;4.45;3.38;;;25.10;99.90;;;;;;4992382;28;20114;-85
2022/06/13 09:05:41;;;;;;;9.35;3.10;;;25.40;99.90;;;;;;4991948;28;20030;-85
2022/06/13 09:08:36;;;;;;;5.10;3.55;;;25.70;99.90;;;;;;4993899;28;20139;-85
2022/06/13 09:11:01;;;;;;;7.30;3.10;;;25.50;99.90;;;;;;4982123;28;20045;-85
2022/06/13 09:13:34;;;;;;;3.95;3.00;;;25.60;99.90;;;;;;4989922;28;20430;-85
2022/06/13 09:16:30;;;;;;;6.00;3.78;;;25.60;99.90;;;;;;4991484;28;20026;-84
2022/06/13 09:19:00;;;;;;;6.45;3.03;;;25.70;99.90;;;;;;4990320;28;20125;-85
2022/06/13 09:21:34;;;;;;;4.50;2.90;;;25.90;99.90;;;;;;4992296;28;20058;-84
2022/06/13 09:24:12;;;;;;;5.22;3.03;;;25.80;99.90;;;;;;4993302;28;20034;-84
2022/06/13 09:26:53;;;;;;;5.45;3.30;;;25.30;99.90;;;;;;4993125;28;20081;-84
2022/06/13 09:29:29;;;;;;;7.40;3.03;;;25.40;99.90;;;;;;4992167;28;20070;-85
2022/06/13 09:32:02;;;;;;;5.38;3.20;;;25.60;99.90;;;;;;4991135;28;20141;-84
2022/06/13 09:34:35;;;;;;;5.15;2.92;;;25.60;99.90;;;;;;4992672;28;20081;-85
2022/06/13 09:37:03;;;;;;;7.70;3.30;;;25.50;99.90;;;;;;4991166;28;20101;-84
2022/06/13 09:39:29;;;;;;;6.15;2.90;;;25.30;99.90;;;;;;4991943;28;20121;-85
2022/06/13 09:42:17;;;;;;;5.88;3.03;;;25.50;99.90;;;;;;4991679;28;20101;-84
2022/06/13 09:45:15;;;;;;;6.80;2.90;;;25.80;99.90;;;;;;4989607;28;20386;-85
2022/06/13 09:47:53;;;;;;;4.30;3.10;;;26.00;99.90;;;;;;4986634;28;20022;-85
2022/06/13 09:50:51;;;;;;;6.85;2.70;;;25.70;99.90;;;;;;4992364;28;20026;-85
2022/06/13 09:53:16;;;;;;;4.20;3.00;;;25.80;99.90;;;;;;4993012;28;20030;-85
2022/06/13 09:55:55;;;;;;;8.25;2.92;;;25.90;99.90;;;;;;4992648;28;20034;-85
2022/06/13 09:58:36;;;;;;;5.75;2.78;;;25.80;99.90;;;;;;4992800;28;20058;-85
2022/06/13 10:01:18;;;;;;;6.30;2.72;;;25.80;99.90;;;;;;4989660;28;20034;-85
2022/06/13 10:03:53;;;;;;;4.47;2.65;;;26.00;99.90;;;;;;4994163;28;20038;-85
2022/06/13 10:06:42;;;;;;;3.55;2.45;;;26.00;99.90;;;;;;4992420;28;20030;-84
2022/06/13 10:09:38;;;;;;;9.32;5.03;;;26.00;99.90;;;;;;4992393;28;20030;-85
2022/06/13 10:12:26;;;;;;;6.75;2.92;;;25.90;99.90;;;;;;4992392;28;20041;-85
2022/06/13 10:15:12;;;;;;;7.75;2.90;;;25.80;99.90;;;;;;4990553;28;20065;-85
2022/06/13 10:17:53;;;;;;;5.72;3.10;;;26.00;99.90;;;;;;4990073;28;20026;-85
2022/06/13 10:20:19;;;;;;;3.15;2.63;;;26.10;99.90;;;;;;4969274;28;20058;-85
2022/06/13 10:23:05;;;;;;;7.90;3.15;;;26.40;99.90;;;;;;4991109;28;20058;-85
2022/06/13 10:25:45;;;;;;;5.03;2.42;;;26.50;99.90;;;;;;4992278;28;20035;-85
2022/06/13 10:28:37;;;;;;;4.15;2.40;;;26.50;99.90;;;;;;4990792;28;20462;-85
2022/06/13 10:31:23;;;;;;;4.25;2.50;;;26.70;99.90;;;;;;4988872;28;20034;-85
2022/06/13 10:34:19;;;;;;;5.40;2.58;;;27.00;99.90;;;;;;4991449;28;20133;-85
2022/06/13 10:37:04;;;;;;;5.22;2.70;;;26.90;99.90;;;;;;4992093;28;20055;-85
2022/06/13 10:39:31;;;;;;;4.00;2.40;;;26.90;99.90;;;;;;4992300;28;20388;-85
2022/06/13 10:42:09;;;;;;;7.13;2.47;;;27.00;99.90;;;;;;4991901;28;20150;-85
2022/06/13 10:44:36;;;;;;;5.20;2.80;;;27.10;99.90;;;;;;4991817;28;20022;-85
2022/06/13 10:47:20;;;;;;;6.80;2.85;;;27.20;99.90;;;;;;4991430;28;20041;-85
2022/06/13 10:49:59;;;;;;;3.60;2.40;;;27.20;99.90;;;;;;4991381;28;20018;-85
2022/06/13 10:52:31;;;;;;;5.72;2.67;;;27.00;99.90;;;;;;4991721;28;20033;-86
2022/06/13 10:55:08;;;;;;;4.10;2.30;;;27.10;99.90;;;;;;4993718;28;20166;-85
2022/06/13 10:57:43;;;;;;;4.30;2.20;;;27.20;99.90;;;;;;4991080;28;20077;-85
2022/06/13 11:00:09;;;;;;;4.38;2.25;;;26.90;99.90;;;;;;4990275;28;20050;-85
2022/06/13 11:02:35;;;;;;;8.20;2.35;;;27.00;99.90;;;;;;4987396;28;20038;-85
2022/06/13 11:05:16;;;;;;;5.28;2.33;;;27.00;99.90;;;;;;4991423;28;20031;-85
2022/06/13 11:08:14;;;;;;;3.65;2.40;;;27.20;99.90;;;;;;4975236;28;20073;-85
2022/06/13 11:10:50;;;;;;;4.50;2.80;;;26.90;99.90;;;;;;4965258;28;20399;-85
2022/06/13 11:13:23;;;;;;;4.22;2.47;;;26.90;99.90;;;;;;4991797;28;20495;-85
2022/06/13 11:24:42;;;;;;;5.95;2.60;;;27.30;99.90;;;;;;4990805;28;20077;-85
2022/06/13 11:27:39;;;;;;;3.70;2.58;;;27.30;99.90;;;;;;4990986;28;20034;-85
2022/06/13 11:30:30;;;;;;;4.82;2.70;;;27.20;99.90;;;;;;4990632;28;20510;-85
2022/06/13 11:33:09;;;;;;;3.83;2.17;;;27.20;99.90;;;;;;4971558;28;20022;-85
2022/06/13 11:35:58;;;;;;;3.22;2.20;;;27.20;99.90;;;;;;4989383;28;20042;-85
2022/06/13 11:38:35;;;;;;;5.90;2.47;;;27.40;99.90;;;;;;4989525;28;20236;-85
2022/06/13 11:41:03;;;;;;;5.13;2.20;;;27.60;99.90;;;;;;4989469;28;20043;-85
2022/06/13 11:43:32;;;;;;;2.72;2.10;;;27.50;99.90;;;;;;4990414;28;20039;-85
2022/06/13 11:46:01;;;;;;;4.18;2.08;;;27.50;99.90;;;;;;4992706;28;20026;-85
2022/06/13 11:48:29;;;;;;;5.35;2.17;;;27.70;99.90;;;;;;4989875;28;20415;-85
2022/06/13 11:51:05;;;;;;;3.28;2.15;;;27.80;99.90;;;;;;4988836;28;20029;-85
2022/06/13 11:53:37;;;;;;;4.10;2.35;;;27.90;99.90;;;;;;4990769;28;20404;-85
2022/06/13 11:56:08;;;;;;;3.58;2.33;;;28.00;99.90;;;;;;4990939;28;20043;-85
2022/06/13 11:58:40;;;;;;;5.53;2.38;;;28.20;99.90;;;;;;4981440;28;20027;-85
2022/06/13 12:01:12;;;;;;;5.70;2.63;;;28.40;99.90;;;;;;4988654;28;20026;-85
2022/06/13 12:03:42;;;;;;;3.95;2.08;;;28.50;99.90;;;;;;4991826;28;20030;-85
2022/06/13 12:06:15;;;;;;;5.13;2.45;;;29.00;99.90;;;;;;4989753;28;20037;-85
2022/06/13 12:08:40;;;;;;;4.38;2.13;;;29.80;99.90;;;;;;4990681;28;20022;-85
2022/06/13 12:11:15;;;;;;;4.40;2.00;;;31.20;99.90;;;;;;4990775;28;20034;-85
2022/06/13 12:13:45;;;;;;;3.20;2.17;;;32.60;99.90;;;;;;4975950;28;20450;-85
2022/06/13 12:16:33;;;;;;;3.70;2.22;;;33.80;99.90;;;;;;4991847;28;20045;-86
2022/06/13 12:19:19;;;;;;;4.80;2.30;;;35.60;99.90;;;;;;4992449;28;20018;-85
2022/06/13 12:21:54;;;;;;;3.72;2.20;;;35.60;99.90;;;;;;4988236;28;20058;-86
2022/06/13 12:24:45;;;;;;;4.30;2.08;;;36.90;99.90;;;;;;4990385;28;20533;-85
2022/06/13 12:27:11;;;;;;;3.97;2.05;;;37.50;99.90;;;;;;4990534;28;20029;-86
2022/06/13 12:30:02;;;;;;;9.45;2.17;;;37.90;99.90;;;;;;4990013;28;20612;-86
2022/06/13 12:32:35;;;;;;;3.40;2.10;;;37.30;99.90;;;;;;4990418;28;20096;-86
2022/06/13 12:35:09;;;;;;;5.43;2.10;;;37.40;99.90;;;;;;4989308;28;20047;-86
2022/06/13 12:38:04;;;;;;;4.75;2.22;;;37.80;99.90;;;;;;4976700;28;20506;-86
2022/06/13 12:40:41;;;;;;;3.67;2.10;;;38.00;99.90;;;;;;4990214;28;20026;-86
2022/06/13 12:43:54;;;;;;;3.85;1.90;;;37.30;99.90;;;;;;4988523;28;20069;-86
2022/06/13 12:46:28;;;;;;;4.65;2.28;;;37.40;99.90;;;;;;4969383;28;20126;-86
2022/06/13 12:49:02;;;;;;;2.92;2.00;;;37.30;99.90;;;;;;4992427;28;20089;-86
2022/06/13 12:51:42;;;;;;;7.03;2.15;;;36.80;99.90;;;;;;4989143;28;20026;-86
2022/06/13 12:54:14;;;;;;;5.45;2.00;;;37.30;99.90;;;;;;4990850;28;20038;-86
2022/06/13 12:56:44;;;;;;;4.78;2.22;;;36.90;99.90;;;;;;4992630;28;20023;-86
2022/06/13 12:59:37;;;;;;;4.28;2.20;;;36.30;99.90;;;;;;4992437;28;20037;-86
2022/06/13 13:02:24;;;;;;;4.10;2.15;;;35.70;99.90;;;;;;4993951;28;20041;-86
2022/06/13 13:05:01;;;;;;;4.43;1.95;;;35.90;99.90;;;;;;4979817;28;20072;-87
2022/06/13 13:07:57;;;;;;;4.30;2.00;;;35.80;99.90;;;;;;4991795;28;20019;-86
2022/06/13 13:10:35;;;;;;;7.00;1.90;;;35.40;99.90;;;;;;4992681;28;20034;-86
2022/06/13 13:13:18;;;;;;;4.20;2.10;;;36.10;99.90;;;;;;4991166;28;20052;-86
2022/06/13 13:16:10;;;;;;;3.58;2.13;;;35.80;99.90;;;;;;4995389;28;20053;-86
2022/06/13 13:18:45;;;;;;;3.30;2.00;;;35.80;99.90;;;;;;4992944;28;20458;-86
2022/06/13 13:21:21;;;;;;;3.47;2.05;;;35.60;99.90;;;;;;4991345;28;20030;-86
2022/06/13 13:23:46;;;;;;;6.20;2.17;;;35.80;99.90;;;;;;4993472;28;20037;-86
2022/06/13 13:26:15;;;;;;;4.13;1.90;;;35.70;99.90;;;;;;4993011;28;20396;-86
2022/06/13 13:29:12;;;;;;;4.38;2.30;;;35.10;99.90;;;;;;4976138;28;20031;-86
2022/06/13 13:31:43;;;;;;;5.15;2.10;;;34.50;99.90;;;;;;4978420;28;20574;-86
2022/06/13 13:34:18;;;;;;;4.10;2.10;;;34.90;99.90;;;;;;4994467;28;20042;-86
2022/06/13 13:37:12;;;;;;;4.90;2.47;;;34.70;99.90;;;;;;4993998;28;20033;-86
2022/06/13 13:39:47;;;;;;;3.83;1.90;;;34.70;99.90;;;;;;4992539;28;20088;-86
2022/06/13 13:42:28;;;;;;;4.57;2.17;;;34.70;99.90;;;;;;4992739;28;20026;-86
2022/06/13 13:45:05;;;;;;;3.70;2.10;;;35.50;99.90;;;;;;4993027;28;20387;-86
2022/06/13 13:47:34;;;;;;;5.10;2.65;;;35.50;99.90;;;;;;4993113;28;20045;-86
2022/06/13 13:50:08;;;;;;;4.53;2.28;;;34.70;99.90;;;;;;4993114;28;20109;-86